Time,TemperatureF,DewpointF,PressureIn,WindDirection,WindDirectionDegrees,WindSpeedMPH,WindSpeedGustMPH,Humidity,HourlyPrecipIn,Conditions,Clouds,dailyrainin,SoftwareType,DateUTC
2013-05-10 00:00:00,41.4,25.5,30.11,South,180,6.7,-999.0,53,-99.99,,,0.00,Acu-Link.com,2013-05-10 06:00:00,
2013-05-10 00:16:00,40.8,25.9,30.11,SSE,157,5.8,-999.0,55,-99.99,,,0.00,Acu-Link.com,2013-05-10 06:16:00,
2013-05-10 00:31:00,39.9,25.5,30.11,SSW,202,6.3,-999.0,56,-99.99,,,0.00,Acu-Link.com,2013-05-10 06:31:00,
2013-05-10 00:46:00,40.6,25.3,30.11,SW,225,6.3,-999.0,54,-99.99,,,0.00,Acu-Link.com,2013-05-10 06:46:00,
2013-05-10 01:01:00,41.0,25.6,30.11,South,180,9.4,-999.0,54,-99.99,,,0.00,Acu-Link.com,2013-05-10 07:01:00,
2013-05-10 01:16:00,40.5,25.6,30.10,SSE,157,5.8,-999.0,55,-99.99,,,0.00,Acu-Link.com,2013-05-10 07:16:00,
2013-05-10 01:31:00,40.6,26.2,30.10,SSE,157,11.4,-999.0,56,-99.99,,,0.00,Acu-Link.com,2013-05-10 07:31:00,
2013-05-10 01:46:00,40.1,25.7,30.09,SW,225,3.8,-999.0,56,-99.99,,,0.00,Acu-Link.com,2013-05-10 07:46:00,
2013-05-10 02:01:00,39.6,25.6,30.10,SSW,202,6.7,-999.0,57,-99.99,,,0.00,Acu-Link.com,2013-05-10 08:01:00,
2013-05-10 02:17:00,39.0,25.5,30.09,SSW,202,6.3,-999.0,58,-99.99,,,0.00,Acu-Link.com,2013-05-10 08:17:00,
2013-05-10 02:32:00,39.0,25.5,30.08,SSW,202,4.3,-999.0,58,-99.99,,,0.00,Acu-Link.com,2013-05-10 08:32:00,
2013-05-10 02:47:00,38.8,26.2,30.08,SSW,202,5.8,-999.0,60,-99.99,,,0.00,Acu-Link.com,2013-05-10 08:47:00,
2013-05-10 03:02:00,39.4,25.8,30.08,SW,225,4.7,-999.0,58,-99.99,,,0.00,Acu-Link.com,2013-05-10 09:02:00,
2013-05-10 03:17:00,38.7,25.6,30.08,SW,225,4.3,-999.0,59,-99.99,,,0.00,Acu-Link.com,2013-05-10 09:17:00,
2013-05-10 03:32:00,38.7,26.0,30.08,SSW,202,6.3,-999.0,60,-99.99,,,0.00,Acu-Link.com,2013-05-10 09:32:00,
2013-05-10 03:47:00,38.5,25.8,30.07,SSW,202,4.7,-999.0,60,-99.99,,,0.00,Acu-Link.com,2013-05-10 09:47:00,
2013-05-10 04:02:00,38.5,25.8,30.06,SSW,202,5.8,-999.0,60,-99.99,,,0.00,Acu-Link.com,2013-05-10 10:02:00,
2013-05-10 04:17:00,38.3,25.6,30.05,SW,225,6.7,-999.0,60,-99.99,,,0.00,Acu-Link.com,2013-05-10 10:17:00,
2013-05-10 04:32:00,38.5,25.8,30.05,SW,225,8.9,-999.0,60,-99.99,,,0.00,Acu-Link.com,2013-05-10 10:32:00,
2013-05-10 04:48:00,38.8,25.3,30.05,SW,225,6.7,-999.0,58,-99.99,,,0.00,Acu-Link.com,2013-05-10 10:48:00,
2013-05-10 05:03:00,38.7,25.2,30.04,SW,225,8.9,-999.0,58,-99.99,,,0.00,Acu-Link.com,2013-05-10 11:03:00,
2013-05-10 05:18:00,39.2,25.7,30.04,SSW,202,10.3,-999.0,58,-99.99,,,0.00,Acu-Link.com,2013-05-10 11:18:00,
2013-05-10 05:33:00,40.5,25.6,30.03,SSW,202,11.9,-999.0,55,-99.99,,,0.00,Acu-Link.com,2013-05-10 11:33:00,
2013-05-10 05:48:00,41.0,26.1,30.03,SSW,202,12.5,-999.0,55,-99.99,,,0.00,Acu-Link.com,2013-05-10 11:48:00,
2013-05-10 06:03:00,41.9,26.0,30.03,SW,225,12.5,-999.0,53,-99.99,,,0.00,Acu-Link.com,2013-05-10 12:03:00,
2013-05-10 06:18:00,42.8,26.4,30.03,SSW,202,12.5,-999.0,52,-99.99,,,0.00,Acu-Link.com,2013-05-10 12:18:00,
2013-05-10 06:34:00,45.0,27.0,30.02,SSW,202,12.5,-999.0,49,-99.99,,,0.00,Acu-Link.com,2013-05-10 12:34:00,
2013-05-10 06:49:00,45.5,27.5,30.02,SSW,202,13.0,-999.0,49,-99.99,,,0.00,Acu-Link.com,2013-05-10 12:49:00,
2013-05-10 07:04:00,47.8,28.6,30.02,SSW,202,15.0,-999.0,47,-99.99,,,0.00,Acu-Link.com,2013-05-10 13:04:00,
2013-05-10 07:19:00,49.8,29.3,30.02,SSW,202,13.0,-999.0,45,-99.99,,,0.00,Acu-Link.com,2013-05-10 13:19:00,
2013-05-10 07:34:00,51.4,29.7,30.02,SSW,202,14.5,-999.0,43,-99.99,,,0.00,Acu-Link.com,2013-05-10 13:34:00,
2013-05-10 07:49:00,53.4,30.3,30.02,SSW,202,14.1,-999.0,41,-99.99,,,0.00,Acu-Link.com,2013-05-10 13:49:00,
2013-05-10 08:04:00,55.8,32.4,30.01,SW,225,13.0,-999.0,41,-99.99,,,0.00,Acu-Link.com,2013-05-10 14:04:00,
2013-05-10 08:20:00,56.3,34.7,30.01,SW,225,13.0,-999.0,44,-99.99,,,0.00,Acu-Link.com,2013-05-10 14:20:00,
2013-05-10 08:35:00,58.6,36.8,30.01,SW,225,15.4,-999.0,44,-99.99,,,0.00,Acu-Link.com,2013-05-10 14:35:00,
2013-05-10 08:50:00,60.1,38.1,30.02,SW,225,15.0,-999.0,44,-99.99,,,0.00,Acu-Link.com,2013-05-10 14:50:00,
2013-05-10 09:05:00,62.4,41.4,30.00,West,270,11.9,-999.0,46,-99.99,,,0.00,Acu-Link.com,2013-05-10 15:05:00,
2013-05-10 09:20:00,65.5,44.1,30.00,WNW,292,15.0,-999.0,46,-99.99,,,0.00,Acu-Link.com,2013-05-10 15:20:00,
2013-05-10 09:35:00,66.4,45.0,30.01,WNW,292,19.0,-999.0,46,-99.99,,,0.00,Acu-Link.com,2013-05-10 15:35:00,
2013-05-10 09:50:00,67.3,44.0,30.01,West,270,21.3,-999.0,43,-99.99,,,0.00,Acu-Link.com,2013-05-10 15:50:00,
2013-05-10 10:05:00,68.2,43.6,30.01,WNW,292,16.6,-999.0,41,-99.99,,,0.00,Acu-Link.com,2013-05-10 16:05:00,
2013-05-10 10:20:00,69.1,42.4,30.01,WNW,292,17.0,-999.0,38,-99.99,,,0.00,Acu-Link.com,2013-05-10 16:20:00,
2013-05-10 10:36:00,68.9,41.5,30.01,NW,315,21.3,-999.0,37,-99.99,,,0.00,Acu-Link.com,2013-05-10 16:36:00,
2013-05-10 10:51:00,68.4,42.4,30.01,WNW,292,19.7,-999.0,39,-99.99,,,0.00,Acu-Link.com,2013-05-10 16:51:00,
2013-05-10 11:06:00,68.5,43.3,30.02,NE,45,19.7,-999.0,40,-99.99,,,0.00,Acu-Link.com,2013-05-10 17:06:00,
2013-05-10 11:21:00,67.3,44.0,30.02,NW,315,11.9,-999.0,43,-99.99,,,0.00,Acu-Link.com,2013-05-10 17:21:00,
2013-05-10 11:36:00,68.5,45.1,30.02,WNW,292,13.4,-999.0,43,-99.99,,,0.00,Acu-Link.com,2013-05-10 17:36:00,
2013-05-10 11:51:00,67.8,42.6,30.04,NW,315,11.0,-999.0,40,-99.99,,,0.00,Acu-Link.com,2013-05-10 17:51:00,
2013-05-10 12:06:00,67.1,41.3,30.03,NNW,337,21.7,-999.0,39,-99.99,,,0.00,Acu-Link.com,2013-05-10 18:06:00,
2013-05-10 12:21:00,67.3,42.1,30.04,NNW,337,23.3,-999.0,40,-99.99,,,0.00,Acu-Link.com,2013-05-10 18:21:00,
2013-05-10 12:37:00,65.8,40.8,30.04,NNE,22,19.7,-999.0,40,-99.99,,,0.00,Acu-Link.com,2013-05-10 18:37:00,
2013-05-10 12:52:00,65.8,40.8,30.05,NW,315,19.7,-999.0,40,-99.99,,,0.00,Acu-Link.com,2013-05-10 18:52:00,
2013-05-10 13:07:00,64.8,39.9,30.07,NNW,337,13.0,-999.0,40,-99.99,,,0.00,Acu-Link.com,2013-05-10 19:07:00,
2013-05-10 13:22:00,62.6,37.9,30.07,NNE,22,20.1,-999.0,40,-99.99,,,0.00,Acu-Link.com,2013-05-10 19:22:00,
2013-05-10 13:37:00,60.3,37.1,30.07,NNW,337,15.0,-999.0,42,-99.99,,,0.00,Acu-Link.com,2013-05-10 19:37:00,
2013-05-10 13:52:00,61.2,35.4,30.08,NNW,337,21.7,-999.0,38,-99.99,,,0.00,Acu-Link.com,2013-05-10 19:52:00,
2013-05-10 14:07:00,61.9,34.6,30.08,NW,315,17.0,-999.0,36,-99.99,,,0.00,Acu-Link.com,2013-05-10 20:07:00,
2013-05-10 14:23:00,61.3,34.2,30.09,North,0,21.3,-999.0,36,-99.99,,,0.00,Acu-Link.com,2013-05-10 20:23:00,
2013-05-10 14:38:00,60.4,32.7,30.10,NNW,337,21.3,-999.0,35,-99.99,,,0.00,Acu-Link.com,2013-05-10 20:38:00,
2013-05-10 14:53:00,62.6,35.3,30.11,WNW,292,17.0,-999.0,36,-99.99,,,0.00,Acu-Link.com,2013-05-10 20:53:00,
2013-05-10 15:08:00,64.0,35.1,30.09,NNW,337,12.5,-999.0,34,-99.99,,,0.00,Acu-Link.com,2013-05-10 21:08:00,
2013-05-10 15:23:00,62.6,34.6,30.09,WNW,292,22.8,-999.0,35,-99.99,,,0.00,Acu-Link.com,2013-05-10 21:23:00,
2013-05-10 15:38:00,62.6,34.6,30.10,NNW,337,16.6,-999.0,35,-99.99,,,0.00,Acu-Link.com,2013-05-10 21:38:00,
2013-05-10 15:53:00,61.9,31.7,30.10,ENE,67,14.5,-999.0,32,-99.99,,,0.00,Acu-Link.com,2013-05-10 21:53:00,
2013-05-10 16:08:00,62.8,32.5,30.11,North,0,15.0,-999.0,32,-99.99,,,0.00,Acu-Link.com,2013-05-10 22:08:00,
2013-05-10 16:23:00,62.1,30.3,30.10,WNW,292,20.1,-999.0,30,-99.99,,,0.00,Acu-Link.com,2013-05-10 22:23:00,
2013-05-10 16:39:00,62.6,30.7,30.11,NW,315,18.1,-999.0,30,-99.99,,,0.00,Acu-Link.com,2013-05-10 22:39:00,
2013-05-10 16:54:00,62.2,27.8,30.11,North,0,16.1,-999.0,27,-99.99,,,0.00,Acu-Link.com,2013-05-10 22:54:00,
2013-05-10 17:09:00,61.5,30.6,30.12,WNW,292,20.6,-999.0,31,-99.99,,,0.00,Acu-Link.com,2013-05-10 23:09:00,
2013-05-10 17:24:00,60.8,30.0,30.12,WNW,292,11.9,-999.0,31,-99.99,,,0.00,Acu-Link.com,2013-05-10 23:24:00,
2013-05-10 17:39:00,60.3,29.5,30.13,NNW,337,18.6,-999.0,31,-99.99,,,0.00,Acu-Link.com,2013-05-10 23:39:00,
2013-05-10 17:54:00,60.1,27.7,30.14,NW,315,23.3,-999.0,29,-99.99,,,0.00,Acu-Link.com,2013-05-10 23:54:00,
2013-05-10 18:09:00,59.2,26.1,30.14,NNW,337,16.1,-999.0,28,-99.99,,,0.00,Acu-Link.com,2013-05-11 00:09:00,
2013-05-10 18:24:00,59.2,27.0,30.14,NW,315,15.4,-999.0,29,-99.99,,,0.00,Acu-Link.com,2013-05-11 00:24:00,
2013-05-10 18:40:00,58.1,26.0,30.15,North,0,14.5,-999.0,29,-99.99,,,0.00,Acu-Link.com,2013-05-11 00:40:00,
2013-05-10 18:55:00,57.2,26.1,30.15,NNW,337,12.5,-999.0,30,-99.99,,,0.00,Acu-Link.com,2013-05-11 00:55:00,
2013-05-10 19:10:00,56.3,24.5,30.16,NNW,337,14.5,-999.0,29,-99.99,,,0.00,Acu-Link.com,2013-05-11 01:10:00,
2013-05-10 19:25:00,54.3,24.3,30.16,NE,45,9.4,-999.0,31,-99.99,,,0.00,Acu-Link.com,2013-05-11 01:25:00,
2013-05-10 19:40:00,53.6,23.7,30.17,West,270,7.8,-999.0,31,-99.99,,,0.00,Acu-Link.com,2013-05-11 01:40:00,
2013-05-10 19:55:00,52.0,23.8,30.18,ENE,67,7.4,-999.0,33,-99.99,,,0.00,Acu-Link.com,2013-05-11 01:55:00,
2013-05-10 20:11:00,50.5,23.2,30.18,ENE,67,14.1,-999.0,34,-99.99,,,0.00,Acu-Link.com,2013-05-11 02:11:00,
2013-05-10 20:26:00,49.1,22.6,30.19,NNW,337,8.9,-999.0,35,-99.99,,,0.00,Acu-Link.com,2013-05-11 02:26:00,
2013-05-10 20:41:00,47.7,22.0,30.21,NW,315,8.9,-999.0,36,-99.99,,,0.00,Acu-Link.com,2013-05-11 02:41:00,
2013-05-10 20:56:00,46.8,21.2,30.21,NW,315,11.4,-999.0,36,-99.99,,,0.00,Acu-Link.com,2013-05-11 02:56:00,
2013-05-10 21:11:00,45.5,20.8,30.22,NNW,337,7.8,-999.0,37,-99.99,,,0.00,Acu-Link.com,2013-05-11 03:11:00,
2013-05-10 21:26:00,44.2,20.9,30.23,ENE,67,5.8,-999.0,39,-99.99,,,0.00,Acu-Link.com,2013-05-11 03:26:00,
2013-05-10 21:41:00,43.3,20.7,30.25,North,0,11.0,-999.0,40,-99.99,,,0.00,Acu-Link.com,2013-05-11 03:41:00,
2013-05-10 21:56:00,41.9,21.1,30.24,North,0,8.9,-999.0,43,-99.99,,,0.00,Acu-Link.com,2013-05-11 03:56:00,
2013-05-10 22:11:00,41.9,21.1,30.25,NNW,337,7.4,-999.0,43,-99.99,,,0.00,Acu-Link.com,2013-05-11 04:11:00,
2013-05-10 22:27:00,40.6,21.0,30.25,NNW,337,8.3,-999.0,45,-99.99,,,0.00,Acu-Link.com,2013-05-11 04:27:00,
2013-05-10 22:42:00,38.1,20.7,30.25,West,270,4.7,-999.0,49,-99.99,,,0.00,Acu-Link.com,2013-05-11 04:42:00,
2013-05-10 22:57:00,37.0,20.6,30.26,WNW,292,5.1,-999.0,51,-99.99,,,0.00,Acu-Link.com,2013-05-11 04:57:00,
2013-05-10 23:12:00,36.5,20.6,30.25,WNW,292,4.7,-999.0,52,-99.99,,,0.00,Acu-Link.com,2013-05-11 05:12:00,
2013-05-10 23:27:00,36.0,20.5,30.26,West,270,4.7,-999.0,53,-99.99,,,0.00,Acu-Link.com,2013-05-11 05:27:00,
2013-05-10 23:42:00,35.8,21.2,30.26,West,270,6.3,-999.0,55,-99.99,,,0.00,Acu-Link.com,2013-05-11 05:42:00,
2013-05-10 23:57:00,35.8,21.2,30.26,West,270,6.3,-999.0,55,-99.99,,,0.00,Acu-Link.com,2013-05-11 05:57:00,